createdAt,value
2022-10-09T00:01:22.509Z,14.40
2022-10-09T00:04:09.234Z,18.77
2022-10-09T00:06:53.712Z,14.10
2022-10-09T00:09:20.782Z,18.17
2022-10-09T00:11:48.283Z,19.75
2022-10-09T00:14:19.505Z,14.60
2022-10-09T00:16:46.257Z,16.40
2022-10-09T00:19:13.049Z,12.48
2022-10-09T00:21:39.860Z,11.82
2022-10-09T00:24:06.689Z,12.40
2022-10-09T00:26:33.771Z,16.35
2022-10-09T00:29:00.757Z,14.80
2022-10-09T00:31:28.206Z,21.15
2022-10-09T00:33:55.226Z,13.25
2022-10-09T00:36:25.624Z,12.48
2022-10-09T00:38:54.658Z,13.52
2022-10-09T00:41:28.900Z,13.63
2022-10-09T00:44:02.376Z,19.85
2022-10-09T00:46:45.684Z,16.58
2022-10-09T00:49:28.989Z,17.52
2022-10-09T00:52:01.934Z,16.27
2022-10-09T00:54:34.157Z,13.70
2022-10-09T00:57:01.465Z,16.83
2022-10-09T00:59:29.040Z,16.13
2022-10-09T01:01:55.974Z,13.55
2022-10-09T01:04:42.766Z,15.00
2022-10-09T01:07:38.181Z,18.20
2022-10-09T01:10:19.935Z,15.20
2022-10-09T01:13:18.892Z,14.43
2022-10-09T01:16:07.066Z,18.13
2022-10-09T01:19:11.968Z,19.55
2022-10-09T01:21:55.186Z,14.48
2022-10-09T01:24:47.263Z,15.32
2022-10-09T01:27:26.013Z,16.30
2022-10-09T01:30:01.719Z,14.13
2022-10-09T01:32:37.107Z,13.55
2022-10-09T01:35:06.422Z,17.25
2022-10-09T01:37:35.947Z,16.33
2022-10-09T01:40:05.005Z,14.02
2022-10-09T01:42:32.894Z,16.00
2022-10-09T01:44:59.662Z,16.20
2022-10-09T01:47:26.545Z,13.98
2022-10-09T01:50:26.366Z,14.88
2022-10-09T01:53:03.939Z,17.85
2022-10-09T01:55:49.036Z,18.65
2022-10-09T01:58:37.392Z,11.88
2022-10-09T02:01:22.737Z,15.50
2022-10-09T02:03:53.359Z,19.73
2022-10-09T02:06:21.197Z,14.80
2022-10-09T02:08:53.510Z,14.07
2022-10-09T02:13:52.971Z,17.00
2022-10-09T02:19:10.511Z,19.50
2022-10-09T02:21:48.017Z,19.00
2022-10-09T02:24:21.126Z,15.68
2022-10-09T02:26:48.318Z,18.65
2022-10-09T02:29:16.060Z,17.38
2022-10-09T02:31:44.212Z,17.38
2022-10-09T02:34:16.714Z,16.63
2022-10-09T02:36:43.795Z,19.88
2022-10-09T02:39:10.532Z,17.95
2022-10-09T02:41:37.396Z,14.45
2022-10-09T02:44:05.945Z,14.63
2022-10-09T02:46:34.311Z,14.50
2022-10-09T02:49:01.312Z,17.27
2022-10-09T02:51:28.070Z,15.70
2022-10-09T02:53:55.643Z,16.08
2022-10-09T02:56:23.637Z,19.35
2022-10-09T02:58:50.982Z,19.15
2022-10-09T03:01:18.235Z,17.67
2022-10-09T03:03:45.568Z,17.48
2022-10-09T03:06:16.719Z,17.80
2022-10-09T03:08:47.102Z,20.25
2022-10-09T03:11:16.776Z,19.48
2022-10-09T03:13:44.028Z,15.43
2022-10-09T03:16:15.556Z,18.38
2022-10-09T03:18:43.840Z,15.75
2022-10-09T03:21:15.516Z,18.73
2022-10-09T03:23:42.937Z,17.90
2022-10-09T03:26:13.909Z,17.20
2022-10-09T03:28:44.444Z,17.70
2022-10-09T03:31:22.623Z,20.80
2022-10-09T03:33:58.149Z,14.68
2022-10-09T03:36:24.913Z,18.70
2022-10-09T03:38:51.712Z,20.15
2022-10-09T03:41:18.466Z,19.23
2022-10-09T03:43:45.198Z,16.27
2022-10-09T03:46:12.429Z,14.43
2022-10-09T03:48:39.217Z,16.38
2022-10-09T03:51:06.165Z,21.50
2022-10-09T03:53:33.615Z,17.50
2022-10-09T03:56:00.348Z,17.33
2022-10-09T03:58:27.638Z,17.77
2022-10-09T04:00:55.058Z,15.40
2022-10-09T04:03:22.429Z,19.38
2022-10-09T04:05:49.281Z,16.25
2022-10-09T04:08:36.174Z,15.60
2022-10-09T04:11:03.845Z,16.52
2022-10-09T04:13:30.855Z,19.40
2022-10-09T04:15:57.666Z,15.05
2022-10-09T04:18:25.921Z,20.45
2022-10-09T04:20:56.152Z,16.60
2022-10-09T04:23:27.177Z,17.23
2022-10-09T04:26:00.118Z,15.43
2022-10-09T04:28:29.393Z,19.90
2022-10-09T04:30:57.732Z,13.48
2022-10-09T04:33:26.167Z,18.25
2022-10-09T04:35:55.407Z,26.58
2022-10-09T04:38:24.390Z,23.05
2022-10-09T04:41:02.214Z,16.42
2022-10-09T04:43:29.885Z,20.38
2022-10-09T04:45:56.972Z,19.10
2022-10-09T04:48:25.042Z,17.52
2022-10-09T04:50:52.143Z,19.27
2022-10-09T04:53:18.895Z,20.33
2022-10-09T04:55:45.824Z,18.80
2022-10-09T04:58:14.074Z,21.70
2022-10-09T05:00:44.005Z,17.00
2022-10-09T05:03:11.776Z,20.77
2022-10-09T05:05:39.183Z,18.33
2022-10-09T05:08:06.645Z,22.58
2022-10-09T05:10:33.534Z,17.77
2022-10-09T05:13:00.589Z,22.73
2022-10-09T05:15:27.786Z,16.70
2022-10-09T05:17:54.851Z,16.23
2022-10-09T05:20:21.821Z,19.88
2022-10-09T05:22:48.973Z,15.70
2022-10-09T05:25:15.917Z,19.77
2022-10-09T05:27:42.818Z,17.52
2022-10-09T05:30:10.903Z,18.30
2022-10-09T05:32:37.617Z,20.02
2022-10-09T05:35:04.726Z,18.15
2022-10-09T05:37:31.689Z,17.80
2022-10-09T05:39:58.534Z,21.20
2022-10-09T05:42:25.277Z,18.08
2022-10-09T05:44:51.965Z,18.83
2022-10-09T05:47:20.873Z,19.48
2022-10-09T05:49:47.610Z,15.70
2022-10-09T05:52:14.596Z,18.30
2022-10-09T05:54:41.992Z,18.50
2022-10-09T05:57:10.008Z,18.70
2022-10-09T05:59:37.070Z,18.75
2022-10-09T06:02:04.274Z,18.10
2022-10-09T06:04:31.064Z,24.98
2022-10-09T06:06:57.975Z,20.65
2022-10-09T06:09:26.362Z,23.75
2022-10-09T06:11:55.100Z,17.10
2022-10-09T06:14:22.304Z,19.40
2022-10-09T06:16:50.856Z,19.42
2022-10-09T06:19:19.625Z,17.65
2022-10-09T06:21:47.710Z,19.38
2022-10-09T06:24:28.131Z,15.93
2022-10-09T06:26:57.110Z,20.23
2022-10-09T06:29:24.452Z,22.02
2022-10-09T06:31:51.240Z,16.70
2022-10-09T06:34:19.207Z,16.92
2022-10-09T06:36:45.932Z,16.70
2022-10-09T06:39:13.199Z,25.13
2022-10-09T06:41:40.536Z,20.20
2022-10-09T06:44:29.490Z,19.75
2022-10-09T06:46:56.193Z,17.35
2022-10-09T06:49:22.991Z,17.30
2022-10-09T06:51:49.788Z,16.92
2022-10-09T06:54:17.560Z,20.08
2022-10-09T06:56:44.833Z,19.95
2022-10-09T06:59:12.711Z,23.92
2022-10-09T07:01:39.868Z,16.92
2022-10-09T07:04:14.479Z,23.02
2022-10-09T07:06:44.854Z,18.48
2022-10-09T07:09:14.562Z,13.50
2022-10-09T07:11:45.791Z,22.58
2022-10-09T07:14:15.992Z,19.23
2022-10-09T07:16:46.847Z,16.25
2022-10-09T07:19:16.119Z,20.00
2022-10-09T07:21:47.030Z,18.85
2022-10-09T07:24:15.429Z,20.98
2022-10-09T07:26:45.587Z,15.40
2022-10-09T07:29:16.846Z,15.13
2022-10-09T07:31:44.483Z,16.70
2022-10-09T07:34:11.704Z,15.27
2022-10-09T07:36:39.906Z,17.58
2022-10-09T07:39:07.143Z,19.55
2022-10-09T07:41:34.983Z,16.25
2022-10-09T07:44:02.280Z,18.15
2022-10-09T07:46:33.259Z,15.05
2022-10-09T07:49:02.574Z,22.17
2022-10-09T07:51:31.210Z,21.48
2022-10-09T07:54:00.298Z,17.00
2022-10-09T07:56:31.790Z,16.48
2022-10-09T07:59:04.170Z,17.50
2022-10-09T08:01:33.199Z,18.05
2022-10-09T08:04:02.572Z,16.20
2022-10-09T08:06:30.433Z,15.80
2022-10-09T08:08:59.350Z,19.05
2022-10-09T08:11:28.840Z,18.08
2022-10-09T08:13:56.345Z,16.58
2022-10-09T08:16:25.083Z,17.15
2022-10-09T08:19:00.022Z,13.75
2022-10-09T08:21:28.481Z,16.35
2022-10-09T08:23:58.108Z,17.48
2022-10-09T08:26:30.429Z,17.55
2022-10-09T08:29:00.942Z,14.93
2022-10-09T08:31:28.899Z,16.33
2022-10-09T08:33:58.687Z,14.13
2022-10-09T08:36:26.506Z,22.42
2022-10-09T08:38:53.623Z,19.45
2022-10-09T08:41:23.259Z,17.65
2022-10-09T08:44:02.279Z,18.77
2022-10-09T08:46:51.640Z,19.40
2022-10-09T08:49:32.588Z,16.27
2022-10-09T08:52:32.803Z,19.38
2022-10-09T08:55:14.562Z,16.63
2022-10-09T08:57:41.489Z,15.07
2022-10-09T09:00:17.820Z,16.25
2022-10-09T09:03:20.917Z,17.50
2022-10-09T09:06:10.321Z,19.65
2022-10-09T09:08:53.905Z,21.27
2022-10-09T09:11:39.174Z,13.95
2022-10-09T09:14:32.970Z,14.25
2022-10-09T09:17:17.541Z,17.33
2022-10-09T09:20:05.564Z,14.32
2022-10-09T09:22:34.370Z,16.10
2022-10-09T09:25:13.591Z,16.10
2022-10-09T09:27:42.032Z,15.52
2022-10-09T09:30:29.270Z,11.55
2022-10-09T09:33:22.261Z,11.77
2022-10-09T09:36:16.644Z,11.82
2022-10-09T09:39:12.620Z,12.85
2022-10-09T09:41:30.374Z,17.42
2022-10-09T09:43:57.158Z,11.77
2022-10-09T09:46:29.069Z,16.73
2022-10-09T09:48:56.163Z,13.85
2022-10-09T09:51:30.043Z,9.45
2022-10-09T09:54:13.417Z,11.98
2022-10-09T09:59:40.896Z,13.13
2022-10-09T10:02:21.282Z,9.02
2022-10-09T10:04:59.831Z,11.68
2022-10-09T10:07:38.740Z,17.05
2022-10-09T10:10:27.390Z,12.90
2022-10-09T10:13:00.209Z,11.32
2022-10-09T10:15:31.463Z,12.65
2022-10-09T10:18:03.528Z,10.88
2022-10-09T10:23:02.865Z,9.32
2022-10-09T10:25:34.695Z,12.45
2022-10-09T10:28:17.960Z,12.02
2022-10-09T10:30:46.101Z,9.88
2022-10-09T10:33:43.151Z,12.32
2022-10-09T10:36:11.003Z,15.43
2022-10-09T10:39:12.405Z,9.65
2022-10-09T10:41:51.308Z,9.80
2022-10-09T10:44:40.584Z,10.32
2022-10-09T10:47:21.712Z,8.27
2022-10-09T10:49:48.660Z,11.00
2022-10-09T10:52:46.074Z,15.70
2022-10-09T10:55:55.343Z,12.23
2022-10-09T10:58:30.343Z,10.50
2022-10-09T11:01:19.837Z,11.60
2022-10-09T11:04:36.276Z,11.18
2022-10-09T11:07:29.252Z,8.60
2022-10-09T11:10:20.058Z,11.18
2022-10-09T11:13:09.327Z,6.40
2022-10-09T11:16:11.753Z,9.52
2022-10-09T11:19:14.743Z,7.22
2022-10-09T11:22:48.150Z,11.77
2022-10-09T11:26:02.747Z,9.90
2022-10-09T11:28:48.689Z,13.95
2022-10-09T11:31:40.634Z,9.43
2022-10-09T11:34:30.457Z,8.30
2022-10-09T11:37:01.353Z,5.68
2022-10-09T11:39:33.443Z,8.95
2022-10-09T11:42:00.845Z,6.00
2022-10-09T11:44:53.500Z,5.38
2022-10-09T11:47:27.745Z,6.35
2022-10-09T11:50:19.097Z,6.60
2022-10-09T11:53:08.921Z,8.23
2022-10-09T11:55:36.849Z,7.65
2022-10-09T11:58:20.299Z,6.35
2022-10-09T12:00:53.806Z,8.52
2022-10-09T12:03:35.131Z,8.50
2022-10-09T12:06:05.783Z,6.40
2022-10-09T12:08:33.520Z,6.85
2022-10-09T12:11:14.744Z,6.80
2022-10-09T12:13:46.173Z,6.00
2022-10-09T12:16:40.072Z,5.50
2022-10-09T12:19:36.204Z,6.18
2022-10-09T12:22:15.848Z,5.75
2022-10-09T12:24:57.883Z,5.38
2022-10-09T12:27:30.747Z,6.00
2022-10-09T12:30:14.248Z,6.25
2022-10-09T12:32:54.038Z,7.13
2022-10-09T12:35:35.345Z,4.60
2022-10-09T12:38:03.207Z,7.68
2022-10-09T12:40:33.798Z,7.18
2022-10-09T12:43:08.031Z,6.03
2022-10-09T12:45:45.035Z,8.75
2022-10-09T12:48:14.457Z,6.97
2022-10-09T12:50:41.540Z,7.20
2022-10-09T12:53:46.079Z,6.75
2022-10-09T12:56:17.408Z,7.90
2022-10-09T12:58:44.449Z,6.18
2022-10-09T13:01:15.782Z,5.82
2022-10-09T13:03:56.449Z,3.90
2022-10-09T13:06:28.407Z,7.03
2022-10-09T13:09:06.973Z,6.00
2022-10-09T13:11:40.642Z,4.65
2022-10-09T13:14:24.760Z,6.85
2022-10-09T13:19:35.331Z,6.22
2022-10-09T13:22:19.677Z,5.97
2022-10-09T13:27:19.627Z,7.57
2022-10-09T13:29:48.018Z,6.47
2022-10-09T13:32:18.018Z,7.35
2022-10-09T13:34:46.459Z,5.63
2022-10-09T13:37:16.046Z,5.32
2022-10-09T13:39:42.992Z,6.10
2022-10-09T13:42:16.152Z,4.32
2022-10-09T13:44:44.063Z,4.55
2022-10-09T13:47:11.156Z,5.43
2022-10-09T13:49:38.271Z,5.57
2022-10-09T13:52:05.337Z,4.18
2022-10-09T13:54:32.335Z,3.53
2022-10-09T13:56:59.370Z,6.72
2022-10-09T13:59:27.147Z,5.32
2022-10-09T14:01:54.283Z,3.72
2022-10-09T14:04:21.346Z,7.32
2022-10-09T14:06:48.608Z,4.32
2022-10-09T14:09:16.169Z,4.70
2022-10-09T14:11:43.617Z,4.88
2022-10-09T14:14:10.577Z,5.30
2022-10-09T14:16:37.940Z,4.10
2022-10-09T14:19:06.401Z,5.10
2022-10-09T14:21:34.098Z,8.90
2022-10-09T14:24:03.250Z,7.20
2022-10-09T14:26:31.077Z,2.35
2022-10-09T14:29:01.461Z,3.95
2022-10-09T14:31:30.015Z,4.45
2022-10-09T14:33:59.547Z,4.43
2022-10-09T14:36:29.038Z,6.15
2022-10-09T14:38:56.414Z,6.28
2022-10-09T14:41:24.561Z,9.23
2022-10-09T14:43:59.574Z,9.50
2022-10-09T14:46:28.749Z,3.95
2022-10-09T14:48:57.832Z,8.45
2022-10-09T14:51:28.019Z,15.18
2022-10-09T14:53:58.405Z,4.75
2022-10-09T14:56:26.908Z,8.50
2022-10-09T14:58:54.222Z,5.78
2022-10-09T15:01:22.763Z,4.55
2022-10-09T15:03:50.033Z,6.55
2022-10-09T15:06:20.093Z,5.18
2022-10-09T15:08:46.838Z,4.82
2022-10-09T15:11:13.597Z,5.72
2022-10-09T15:13:40.483Z,5.82
2022-10-09T15:16:12.906Z,5.25
2022-10-09T15:18:41.155Z,5.03
2022-10-09T15:21:20.487Z,4.32
2022-10-09T15:23:48.454Z,7.65
2022-10-09T15:26:15.290Z,4.60
2022-10-09T15:28:44.784Z,4.85
2022-10-09T15:31:24.519Z,6.10
2022-10-09T15:33:53.770Z,4.18
2022-10-09T15:36:22.090Z,7.80
2022-10-09T15:38:49.798Z,6.03
2022-10-09T15:41:38.758Z,4.00
2022-10-09T15:44:17.286Z,4.82
2022-10-09T15:46:45.659Z,5.28
2022-10-09T15:49:12.721Z,6.68
2022-10-09T15:51:39.556Z,4.10
2022-10-09T15:54:07.071Z,7.25
2022-10-09T15:56:39.448Z,5.57
2022-10-09T15:59:07.281Z,6.57
2022-10-09T16:01:34.246Z,4.63
2022-10-09T16:04:00.994Z,3.85
2022-10-09T16:06:27.724Z,7.38
2022-10-09T16:08:59.007Z,7.68
2022-10-09T16:11:26.751Z,8.38
2022-10-09T16:13:55.048Z,6.43
2022-10-09T16:16:25.433Z,7.65
2022-10-09T16:18:52.630Z,6.60
2022-10-09T16:21:24.510Z,5.10
2022-10-09T16:26:25.966Z,4.53
2022-10-09T16:28:52.850Z,7.93
2022-10-09T16:31:24.139Z,5.32
2022-10-09T16:33:50.965Z,4.70
2022-10-09T16:36:18.043Z,7.13
2022-10-09T16:38:45.520Z,7.95
2022-10-09T16:41:19.892Z,4.05
2022-10-09T16:43:50.224Z,6.72
2022-10-09T16:51:34.365Z,6.28
2022-10-09T16:54:05.357Z,5.45
2022-10-09T16:56:36.728Z,4.95
2022-10-09T16:59:07.758Z,5.60
2022-10-09T17:01:42.287Z,4.40
2022-10-09T17:04:09.738Z,4.45
2022-10-09T17:06:36.713Z,7.32
2022-10-09T17:09:13.482Z,8.48
2022-10-09T17:11:41.972Z,8.07
2022-10-09T17:14:08.872Z,9.85
2022-10-09T17:16:39.442Z,7.65
2022-10-09T17:19:07.097Z,9.98
2022-10-09T17:21:35.497Z,7.80
2022-10-09T17:24:04.708Z,10.38
2022-10-09T17:26:31.833Z,8.27
2022-10-09T17:29:00.877Z,7.90
2022-10-09T17:31:29.454Z,7.47
2022-10-09T17:34:02.655Z,8.98
2022-10-09T17:36:34.785Z,7.45
2022-10-09T17:39:02.067Z,10.52
2022-10-09T17:41:29.330Z,8.38
2022-10-09T17:43:57.433Z,11.27
2022-10-09T17:46:27.058Z,7.65
2022-10-09T17:48:56.601Z,10.18
2022-10-09T17:51:52.649Z,11.80
2022-10-09T17:54:19.632Z,9.77
2022-10-09T17:56:46.486Z,9.20
2022-10-09T17:59:15.485Z,7.07
2022-10-09T18:01:44.053Z,9.68
2022-10-09T18:04:16.813Z,10.20
2022-10-09T18:06:44.577Z,9.90
2022-10-09T18:09:12.277Z,8.18
2022-10-09T18:11:39.054Z,8.88
2022-10-09T18:14:05.825Z,8.85
2022-10-09T18:16:37.789Z,10.75
2022-10-09T18:19:12.914Z,10.50
2022-10-09T18:21:43.964Z,13.60
2022-10-09T18:24:12.726Z,11.32
2022-10-09T18:26:40.990Z,9.82
2022-10-09T18:29:07.808Z,9.00
2022-10-09T18:31:35.021Z,8.45
2022-10-09T18:34:02.061Z,7.22
2022-10-09T18:36:34.784Z,6.55
2022-10-09T18:39:14.155Z,7.22
2022-10-09T18:41:41.584Z,6.53
2022-10-09T18:44:17.181Z,8.38
2022-10-09T18:46:58.382Z,8.50
2022-10-09T18:49:31.485Z,7.60
2022-10-09T18:52:02.139Z,7.28
2022-10-09T18:54:30.992Z,7.53
2022-10-09T18:56:58.179Z,6.97
2022-10-09T18:59:25.061Z,5.90
2022-10-09T19:01:51.883Z,7.90
2022-10-09T19:04:19.056Z,5.78
2022-10-09T19:06:46.132Z,9.45
2022-10-09T19:09:14.104Z,6.63
2022-10-09T19:11:40.964Z,8.75
2022-10-09T19:14:07.894Z,6.20
2022-10-09T19:16:35.583Z,9.82
2022-10-09T19:19:02.712Z,5.93
2022-10-09T19:21:29.920Z,11.18
2022-10-09T19:23:56.924Z,8.57
2022-10-09T19:26:24.334Z,6.93
2022-10-09T19:28:51.934Z,8.05
2022-10-09T19:31:18.788Z,10.13
2022-10-09T19:33:45.741Z,9.95
2022-10-09T19:36:14.173Z,6.97
2022-10-09T19:38:41.655Z,8.38
2022-10-09T19:41:15.139Z,8.65
2022-10-09T19:43:42.825Z,7.10
2022-10-09T19:46:20.789Z,7.53
2022-10-09T19:48:47.660Z,10.65
2022-10-09T19:51:21.929Z,7.35
2022-10-09T19:53:51.964Z,8.52
2022-10-09T19:56:24.404Z,9.45
2022-10-09T19:58:52.228Z,11.77
2022-10-09T20:01:24.333Z,8.63
2022-10-09T20:04:00.710Z,10.27
2022-10-09T20:06:28.322Z,10.73
2022-10-09T20:08:55.733Z,10.25
2022-10-09T20:11:23.043Z,9.65
2022-10-09T20:13:55.531Z,9.13
2022-10-09T20:16:24.533Z,8.75
2022-10-09T20:18:51.613Z,9.05
2022-10-09T20:21:18.614Z,11.68
2022-10-09T20:23:45.787Z,9.73
2022-10-09T20:26:17.462Z,7.03
2022-10-09T20:28:46.454Z,6.63
2022-10-09T20:31:19.426Z,7.90
2022-10-09T20:33:48.839Z,8.82
2022-10-09T20:36:23.458Z,8.20
2022-10-09T20:38:51.209Z,8.60
2022-10-09T20:41:18.279Z,10.57
2022-10-09T20:43:49.219Z,7.95
2022-10-09T20:46:16.241Z,7.90
2022-10-09T20:48:43.976Z,10.85
2022-10-09T20:51:10.940Z,9.43
2022-10-09T20:53:38.080Z,8.40
2022-10-09T20:56:09.376Z,8.50
2022-10-09T20:58:36.868Z,11.05
2022-10-09T21:01:07.106Z,11.18
2022-10-09T21:03:35.674Z,7.22
2022-10-09T21:06:10.095Z,9.10
2022-10-09T21:08:37.988Z,8.80
2022-10-09T21:11:16.607Z,11.30
2022-10-09T21:13:45.357Z,11.95
2022-10-09T21:16:20.889Z,10.63
2022-10-09T21:18:48.534Z,7.03
2022-10-09T21:21:17.711Z,10.10
2022-10-09T21:23:45.415Z,7.75
2022-10-09T21:26:17.999Z,8.55
2022-10-09T21:28:46.080Z,9.50
2022-10-09T21:31:22.708Z,7.40
2022-10-09T21:33:50.587Z,7.60
2022-10-09T21:36:31.243Z,9.02
2022-10-09T21:38:58.314Z,10.05
2022-10-09T21:41:25.477Z,7.80
2022-10-09T21:43:52.228Z,7.90
2022-10-09T21:46:18.970Z,7.05
2022-10-09T21:48:45.670Z,9.52
2022-10-09T21:51:12.419Z,10.52
2022-10-09T21:53:39.328Z,7.38
2022-10-09T21:56:07.175Z,7.30
2022-10-09T21:58:33.920Z,7.45
2022-10-09T22:01:02.387Z,12.82
2022-10-09T22:03:33.607Z,10.18
2022-10-09T22:06:06.579Z,8.32
2022-10-09T22:08:34.245Z,7.60
2022-10-09T22:11:05.317Z,8.35
2022-10-09T22:13:32.117Z,8.88
2022-10-09T22:15:58.856Z,8.52
2022-10-09T22:18:25.803Z,8.23
2022-10-09T22:20:52.617Z,10.63
2022-10-09T22:23:20.810Z,8.45
2022-10-09T22:26:10.474Z,7.85
2022-10-09T22:28:37.260Z,9.98
2022-10-09T22:31:16.142Z,7.28
2022-10-09T22:33:43.918Z,9.88
2022-10-09T22:36:17.532Z,9.85
2022-10-09T22:38:45.438Z,8.93
2022-10-09T22:41:18.945Z,9.38
2022-10-09T22:43:50.102Z,9.75
2022-10-09T22:46:33.065Z,9.55
2022-10-09T22:49:00.298Z,10.82
2022-10-09T22:51:29.873Z,9.20
2022-10-09T22:53:59.619Z,9.65
2022-10-09T22:56:31.697Z,8.30
2022-10-09T22:58:58.694Z,10.35
2022-10-09T23:01:35.203Z,9.00
2022-10-09T23:04:07.907Z,9.80
2022-10-09T23:06:35.071Z,9.23
2022-10-09T23:09:07.550Z,9.82
2022-10-09T23:11:35.255Z,10.52
2022-10-09T23:14:03.383Z,9.38
2022-10-09T23:16:31.944Z,11.57
2022-10-09T23:19:06.071Z,7.18
2022-10-09T23:21:34.479Z,7.07
2022-10-09T23:24:01.234Z,8.80
2022-10-09T23:26:31.905Z,10.98
2022-10-09T23:29:08.267Z,7.25
2022-10-09T23:31:36.620Z,11.20
2022-10-09T23:34:05.872Z,8.93
2022-10-09T23:36:33.512Z,10.75
2022-10-09T23:39:02.620Z,7.82
2022-10-09T23:41:29.824Z,9.70
2022-10-09T23:43:56.990Z,13.43
2022-10-09T23:46:28.061Z,8.90
2022-10-09T23:48:56.390Z,8.60
2022-10-09T23:51:25.544Z,10.75
2022-10-09T23:53:52.866Z,9.90
2022-10-09T23:56:32.635Z,7.55
2022-10-09T23:59:02.147Z,11.20
